Time;durP1;ratioP1;P1;durP2;ratioP2;P2;SDS_P1;SDS_P2;PMS_P1;PMS_P2;Temp;Humidity;BMP_temperature;BMP_pressure;BME280_temperature;BME280_humidity;BME280_pressure;Samples;Min_cycle;Max_cycle;Signal;HPM_P1;HPM_P2
2021/12/04 00:01:10;;;;;;;52.57;29.00;;;;;;;5.60;100.00;98141.69;4977148;28;20171;-88
2021/12/04 00:03:40;;;;;;;48.83;27.80;;;;;;;7.98;100.00;98582.59;4995232;28;20548;-88
2021/12/04 00:06:16;;;;;;;51.10;28.20;;;;;;;7.26;100.00;98470.47;4995273;28;20291;-88
2021/12/04 00:08:46;;;;;;;53.00;26.87;;;;;;;4.21;100.00;97970.03;4994729;28;20170;-87
2021/12/04 00:11:12;;;;;;;49.63;27.53;;;;;;;5.53;100.00;98199.91;4977301;28;20257;-89
2021/12/04 00:13:38;;;;;;;55.00;27.77;;;;;;;5.05;100.00;98096.66;4994641;28;20171;-87
2021/12/04 00:16:04;;;;;;;51.90;26.87;;;;;;;7.97;100.00;98590.94;4994339;28;20163;-88
2021/12/04 00:18:29;;;;;;;48.53;27.40;;;;;;;6.42;100.00;98360.44;4977033;28;20221;-87
2021/12/04 00:20:54;;;;;;;51.50;27.93;;;;;;;5.52;100.00;98200.72;4977023;28;20179;-88
2021/12/04 00:23:20;;;;;;;50.23;25.93;;;;;;;7.36;100.00;98487.69;4993996;28;20257;-88
2021/12/04 00:25:45;;;;;;;45.60;25.33;;;;;;;5.68;100.00;98210.63;4993389;28;20191;-86
2021/12/04 00:28:11;;;;;;;41.23;24.23;;;;;;;6.85;100.00;98380.72;4994967;28;20254;-87
2021/12/04 00:30:36;;;;;;;41.73;24.13;;;;;;;5.62;100.00;98182.75;4998302;28;20167;-88
2021/12/04 00:33:08;;;;;;;41.43;23.27;;;;;;;7.85;100.00;98547.63;4996107;28;20175;-87
2021/12/04 00:35:37;;;;;;;44.73;22.97;;;;;;;5.15;100.00;98090.38;4993079;28;20168;-86
2021/12/04 00:49:08;;;;;;;34.33;18.40;;;;;;;7.25;100.00;98453.66;4998808;28;20703;-87
2021/12/04 00:51:36;;;;;;;30.23;18.30;;;;;;;8.17;100.00;98608.59;5000158;28;20190;-87
2021/12/04 00:54:01;;;;;;;30.30;17.83;;;;;;;8.26;100.00;98615.66;4995622;28;20167;-88
2021/12/04 00:56:27;;;;;;;29.50;16.50;;;;;;;6.04;100.00;98212.25;4974601;28;20227;-87
2021/12/04 00:58:52;;;;;;;29.93;16.73;;;;;;;6.36;100.00;98287.31;4990876;28;20207;-87
2021/12/04 01:01:19;;;;;;;28.90;15.73;;;;;;;5.72;100.00;98179.84;5000704;28;20592;-86
2021/12/04 01:03:45;;;;;;;28.73;17.30;;;;;;;6.00;100.00;98181.88;4974154;28;20258;-87
2021/12/04 01:06:11;;;;;;;28.03;15.63;;;;;;;5.85;100.00;98169.56;4973653;28;20231;-88
2021/12/04 01:08:36;;;;;;;26.00;15.83;;;;;;;5.30;100.00;98103.59;4975007;28;20160;-86
2021/12/04 01:11:03;;;;;;;27.87;15.00;;;;;;;6.42;100.00;98269.97;4989627;28;20176;-88
2021/12/04 01:13:30;;;;;;;27.77;14.77;;;;;;;6.59;100.00;98289.91;4974362;28;20165;-89
2021/12/04 01:15:55;;;;;;;26.73;15.27;;;;;;;5.57;100.00;98113.94;4975082;28;20168;-87
2021/12/04 01:18:21;;;;;;;22.07;13.40;;;;;;;6.19;100.00;98243.00;4973294;28;20171;-87
2021/12/04 01:20:46;;;;;;;24.47;13.90;;;;;;;5.89;100.00;98173.91;4989483;28;20598;-87
2021/12/04 01:23:12;;;;;;;24.43;13.53;;;;;;;5.69;100.00;98129.50;4974222;28;20164;-88
2021/12/04 01:25:38;;;;;;;24.80;13.50;;;;;;;7.17;100.00;98354.31;4990282;28;20676;-87
2021/12/04 01:28:04;;;;;;;20.77;11.93;;;;;;;8.04;100.00;98482.03;4978381;28;20164;-87
2021/12/04 01:30:30;;;;;;;21.80;12.70;;;;;;;8.32;100.00;98536.09;4993345;28;20183;-87
2021/12/04 01:32:56;;;;;;;24.30;12.43;;;;;;;6.40;100.00;98191.09;4978120;28;20176;-87
2021/12/04 01:35:21;;;;;;;22.47;12.93;;;;;;;6.45;100.00;98212.28;4979284;28;20267;-88
2021/12/04 01:37:47;;;;;;;21.67;12.80;;;;;;;5.74;100.00;98090.41;4978383;28;20175;-87
2021/12/04 01:40:13;;;;;;;20.47;11.37;;;;;;;6.81;100.00;98267.34;4978179;28;20167;-87
2021/12/04 01:42:39;;;;;;;21.50;11.50;;;;;;;8.22;100.00;98516.34;4978737;28;20164;-87
2021/12/04 01:45:07;;;;;;;20.47;11.63;;;;;;;6.71;100.00;98258.56;5006143;28;20207;-84
2021/12/04 01:47:33;;;;;;;20.57;12.23;;;;;;;7.84;100.00;98452.66;4986391;28;20200;-87
2021/12/04 01:50:00;;;;;;;20.73;10.87;;;;;;;5.84;100.00;98115.06;4996564;28;20168;-88
2021/12/04 01:52:26;;;;;;;18.00;11.77;;;;;;;7.89;100.00;98431.88;4981581;28;20188;-88
2021/12/04 01:54:52;;;;;;;20.37;10.87;;;;;;;8.67;100.00;98557.63;4976938;28;20172;-87
2021/12/04 01:57:20;;;;;;;16.50;10.57;;;;;;;6.73;100.00;98251.09;4984306;28;20232;-88
2021/12/04 01:59:46;;;;;;;65.23;34.00;;;;;;;6.86;100.00;98298.56;4966437;28;20184;-86
2021/12/04 02:02:11;;;;;;;14.13;8.57;;;;;;;6.92;100.00;98326.50;4965516;28;20188;-86
2021/12/04 02:04:37;;;;;;;15.13;9.33;;;;;;;5.98;100.00;98184.34;4977909;28;20164;-88
2021/12/04 02:07:04;;;;;;;15.97;10.10;;;;;;;6.48;100.00;98229.97;4980423;28;20274;-87
2021/12/04 02:09:34;;;;;;;14.60;8.70;;;;;;;8.12;100.00;98485.69;4978115;28;20217;-88
2021/12/04 02:12:05;;;;;;;12.67;8.83;;;;;;;7.93;100.00;98442.94;4977521;28;20226;-87
2021/12/04 02:14:37;;;;;;;10.57;7.57;;;;;;;6.90;100.00;98247.56;4992667;28;20590;-88
2021/12/04 02:17:06;;;;;;;13.20;8.17;;;;;;;6.85;100.00;98249.91;4977341;28;20176;-87
2021/12/04 02:19:32;;;;;;;15.03;10.00;;;;;;;6.39;100.00;98129.09;4977264;28;20594;-88
2021/12/04 02:21:57;;;;;;;11.07;6.40;;;;;;;6.47;100.00;98155.38;4977314;28;20168;-87
2021/12/04 02:24:23;;;;;;;11.83;5.83;;;;;;;5.61;100.00;98012.84;4977419;28;20168;-87
2021/12/04 02:26:50;;;;;;;11.87;7.73;;;;;;;8.73;100.00;98525.06;4992095;28;20226;-87
2021/12/04 02:29:16;;;;;;;12.80;8.43;;;;;;;7.01;100.00;98251.38;4976390;28;20175;-88
2021/12/04 02:31:56;;;;;;;11.03;6.17;;;;;;;6.70;100.00;98201.53;4971748;28;20184;-88
2021/12/04 02:34:27;;;;;;;9.70;6.20;;;;;;;7.17;100.00;98238.56;4972443;28;20184;-87
2021/12/04 02:36:54;;;;;;;7.83;5.07;;;;;;;8.63;100.00;98528.03;4955179;28;20169;-88
2021/12/04 02:39:23;;;;;;;11.13;5.87;;;;;;;5.17;100.00;97918.22;4957754;28;20161;-87
2021/12/04 02:41:49;;;;;;;10.77;5.97;;;;;;;8.69;100.00;98513.13;4989908;28;20259;-87
2021/12/04 02:44:14;;;;;;;8.53;5.80;;;;;;;6.33;100.00;98095.31;4978232;28;20256;-88
2021/12/04 02:46:40;;;;;;;9.97;6.10;;;;;;;4.86;100.00;97901.09;4992046;28;20192;-87
2021/12/04 02:49:07;;;;;;;9.03;6.40;;;;;;;6.23;100.00;98126.78;4977094;28;20175;-87
2021/12/04 02:51:32;;;;;;;14.23;6.70;;;;;;;7.15;100.00;98232.63;4975474;28;20251;-87
2021/12/04 02:53:58;;;;;;;10.27;6.33;;;;;;;5.46;100.00;97949.50;4976407;28;20262;-87
2021/12/04 02:56:25;;;;;;;10.30;6.03;;;;;;;7.47;100.00;98304.34;4994218;28;20754;-86
2021/12/04 02:58:54;;;;;;;8.73;4.90;;;;;;;6.38;100.00;98149.13;4994139;28;20219;-87
2021/12/04 03:01:20;;;;;;;9.13;5.70;;;;;;;6.03;100.00;98155.25;4978674;28;20195;-86
2021/12/04 03:03:45;;;;;;;10.00;6.13;;;;;;;5.76;100.00;98108.88;4975382;28;20255;-87
2021/12/04 03:06:11;;;;;;;10.40;5.63;;;;;;;7.48;100.00;98416.81;4959557;28;20213;-90
2021/12/04 03:08:36;;;;;;;12.30;6.37;;;;;;;5.06;100.00;97983.00;4952820;29;20176;-87
2021/12/04 03:11:01;;;;;;;10.47;6.03;;;;;;;7.10;100.00;98317.16;4937629;29;20177;-87
2021/12/04 03:13:27;;;;;;;8.53;5.53;;;;;;;6.96;100.00;98315.75;4937827;29;20252;-87
2021/12/04 03:15:59;;;;;;;9.83;5.37;;;;;;;6.96;100.00;98303.16;4953493;29;20172;-87
2021/12/04 03:18:28;;;;;;;10.23;5.90;;;;;;;8.23;100.00;98528.16;4957222;29;20216;-87
2021/12/04 03:20:54;;;;;;;10.70;6.03;;;;;;;6.78;100.00;98309.97;4940286;29;20174;-87
2021/12/04 03:23:31;;;;;;;10.97;6.40;;;;;;;6.94;100.00;98324.88;4936645;29;20264;-87
2021/12/04 03:25:59;;;;;;;10.63;6.33;;;;;;;7.77;100.00;98455.75;4936703;29;20197;-86
2021/12/04 03:28:25;;;;;;;10.33;6.53;;;;;;;6.29;100.00;98227.50;4952280;29;20177;-89
2021/12/04 03:31:05;;;;;;;10.67;5.60;;;;;;;6.98;100.00;98347.72;4937150;29;20161;-87
2021/12/04 03:41:23;;;;;;;10.03;6.20;;;;;;;7.88;100.00;98550.25;4939488;29;20549;-87
2021/12/04 03:43:49;;;;;;;11.33;6.53;;;;;;;7.46;100.00;98449.50;4937949;29;20173;-87
2021/12/04 03:46:15;;;;;;;9.80;6.10;;;;;;;4.33;100.00;97940.53;4936807;29;20208;-87
2021/12/04 03:51:07;;;;;;;10.50;5.83;;;;;;;7.02;100.00;98383.91;4937604;29;20169;-88
2021/12/04 03:53:33;;;;;;;9.90;5.70;;;;;;;7.84;100.00;98503.91;4951927;29;20199;-86
2021/12/04 03:55:59;;;;;;;10.47;6.23;;;;;;;8.14;100.00;98559.72;4943165;28;20323;-87
2021/12/04 03:58:25;;;;;;;10.97;6.43;;;;;;;8.15;100.00;98547.19;4973945;28;20188;-88
2021/12/04 04:00:51;;;;;;;11.67;6.40;;;;;;;6.37;100.00;98258.84;4957964;28;20180;-87
2021/12/04 04:03:16;;;;;;;10.13;6.57;;;;;;;6.58;100.00;98304.13;4958243;28;20176;-86
2021/12/04 04:05:42;;;;;;;11.10;6.33;;;;;;;6.49;100.00;98304.59;4975420;28;20599;-87
2021/12/04 04:08:09;;;;;;;11.27;6.70;;;;;;;6.75;100.00;98330.84;4957911;28;20216;-86
2021/12/04 04:10:34;;;;;;;14.43;8.50;;;;;;;8.16;100.00;98579.13;4975412;28;20231;-87
2021/12/04 04:12:59;;;;;;;11.97;7.50;;;;;;;6.47;100.00;98253.41;4958566;28;20636;-87
2021/12/04 04:15:25;;;;;;;13.33;8.10;;;;;;;7.20;100.00;98417.38;4989918;28;20184;-87
2021/12/04 04:17:51;;;;;;;12.03;7.40;;;;;;;6.98;100.00;98384.56;4993423;28;20624;-87
2021/12/04 04:20:20;;;;;;;11.60;6.83;;;;;;;5.93;100.00;98178.28;4982256;28;20202;-86
2021/12/04 04:22:46;;;;;;;11.80;7.27;;;;;;;6.20;100.00;98228.81;5005458;28;20172;-87
2021/12/04 04:25:14;;;;;;;12.50;7.20;;;;;;;7.39;100.00;98439.13;4980897;28;20235;-88
2021/12/04 04:27:40;;;;;;;12.00;7.50;;;;;;;6.44;100.00;98268.38;4995366;28;20178;-87
2021/12/04 04:30:13;;;;;;;11.77;6.97;;;;;;;8.03;100.00;98550.88;4996866;28;20171;-87
2021/12/04 04:32:39;;;;;;;9.07;5.67;;;;;;;6.20;100.00;98274.91;4977146;28;20598;-87
2021/12/04 04:35:10;;;;;;;12.13;6.90;;;;;;;7.44;100.00;98465.34;4976879;28;20183;-87
2021/12/04 05:02:06;;;;;;;11.97;7.00;;;;;;;8.12;100.00;98568.88;4994964;28;20203;-87
2021/12/04 05:13:03;;;;;;;31.73;18.23;;;;;;;6.27;100.00;98281.88;4934642;29;20261;-89
2021/12/04 05:20:39;;;;;;;23.20;10.67;;;;;;;6.06;100.00;98235.75;4935210;29;20589;-89
2021/12/04 05:23:07;;;;;;;41.70;18.13;;;;;;;8.19;100.00;98583.44;4919693;29;20197;-88
2021/12/04 05:25:35;;;;;;;13.43;7.97;;;;;;;5.52;100.00;98143.84;4949750;29;20213;-87
2021/12/04 05:28:05;;;;;;;63.63;32.93;;;;;;;6.25;100.00;98302.72;4918058;29;20225;-88
2021/12/04 05:30:31;;;;;;;31.20;16.00;;;;;;;6.55;100.00;98334.16;4917854;29;20264;-89
2021/12/04 05:32:56;;;;;;;18.30;9.57;;;;;;;6.19;100.00;98277.31;4934183;29;20257;-88
2021/12/04 05:35:22;;;;;;;18.20;9.93;;;;;;;8.14;100.00;98602.56;4934546;29;20193;-88
2021/12/04 05:37:48;;;;;;;39.63;20.83;;;;;;;6.85;100.00;98374.81;4933935;29;20689;-88
2021/12/04 05:40:15;;;;;;;33.07;18.07;;;;;;;6.19;100.00;98267.28;4933300;29;20268;-88
2021/12/04 05:42:42;;;;;;;23.20;14.03;;;;;;;8.07;100.00;98593.03;4950032;29;20181;-87
2021/12/04 05:45:15;;;;;;;27.40;15.13;;;;;;;7.44;100.00;98511.53;4934896;29;20174;-86
2021/12/04 05:47:46;;;;;;;22.77;12.97;;;;;;;5.54;100.00;98186.59;4981522;28;20184;-88
2021/12/04 05:55:22;;;;;;;16.53;9.77;;;;;;;4.87;100.00;98035.66;4994076;28;20677;-88
2021/12/04 05:57:47;;;;;;;37.83;19.03;;;;;;;6.64;100.00;98318.59;4992357;28;20198;-90
2021/12/04 06:00:20;;;;;;;92.40;33.97;;;;;;;5.89;100.00;98209.94;4993673;28;20255;-88
2021/12/04 06:02:46;;;;;;;17.90;9.03;;;;;;;8.18;100.00;98610.34;4993716;28;20163;-87
2021/12/04 06:05:13;;;;;;;18.07;8.73;;;;;;;6.06;100.00;98270.94;4993403;28;20167;-88
2021/12/04 06:07:39;;;;;;;20.77;12.93;;;;;;;6.44;100.00;98336.25;4993500;28;20175;-87
2021/12/04 06:10:06;;;;;;;14.73;8.30;;;;;;;5.65;100.00;98168.69;4976272;28;20598;-88
2021/12/04 06:12:31;;;;;;;18.10;11.63;;;;;;;6.74;100.00;98365.97;4994489;28;20178;-88
2021/12/04 06:14:57;;;;;;;21.77;13.17;;;;;;;8.11;100.00;98607.47;4981024;28;20630;-88
2021/12/04 06:17:24;;;;;;;22.00;11.40;;;;;;;6.30;100.00;98332.28;4979466;28;20559;-88
2021/12/04 06:22:37;;;;;;;15.73;8.57;;;;;;;8.18;100.00;98622.06;5000814;28;20222;-90
2021/12/04 06:25:08;;;;;;;20.50;11.17;;;;;;;6.85;100.00;98410.03;5000733;28;20171;-87
2021/12/04 06:27:34;;;;;;;24.03;11.50;;;;;;;4.64;100.00;98031.31;4983910;28;20178;-89
2021/12/04 06:29:59;;;;;;;20.43;9.53;;;;;;;7.89;100.00;98567.94;4999838;28;20171;-89
2021/12/04 06:32:25;;;;;;;26.37;11.73;;;;;;;7.99;100.00;98601.97;4964702;28;20176;-87
2021/12/04 06:34:52;;;;;;;22.83;10.50;;;;;;;5.81;100.00;98241.34;4969723;28;20179;-89
2021/12/04 06:37:18;;;;;;;29.33;13.93;;;;;;;6.17;100.00;98322.50;5001691;28;20267;-88
2021/12/04 06:39:44;;;;;;;15.53;8.83;;;;;;;6.09;100.00;98353.09;4981356;28;20231;-88
2021/12/04 06:42:09;;;;;;;20.00;11.23;;;;;;;4.67;100.00;98114.97;4999545;28;20190;-88
2021/12/04 06:44:35;;;;;;;24.73;15.50;;;;;;;7.81;100.00;98666.69;4982175;28;20254;-89
2021/12/04 06:47:00;;;;;;;26.37;14.97;;;;;;;6.77;100.00;98512.81;4997493;28;20199;-88
2021/12/04 06:49:31;;;;;;;19.03;11.30;;;;;;;6.01;100.00;98390.44;4997559;28;20176;-88
2021/12/04 06:51:59;;;;;;;20.93;13.20;;;;;;;5.24;100.00;98297.34;4980729;28;20214;-89
2021/12/04 06:54:29;;;;;;;14.90;7.90;;;;;;;6.60;100.00;98548.06;5000989;28;20179;-88
2021/12/04 06:56:55;;;;;;;22.53;11.47;;;;;;;5.12;100.00;98291.75;5003559;28;20148;-87
2021/12/04 06:59:27;;;;;;;23.17;13.80;;;;;;;4.16;100.00;98160.13;5019006;28;20418;-88
2021/12/04 07:01:53;;;;;;;22.87;13.57;;;;;;;5.55;100.00;98399.97;5004281;28;20179;-88
2021/12/04 07:04:19;;;;;;;92.53;49.73;;;;;;;5.80;100.00;98442.16;5000865;28;20415;-89
2021/12/04 07:06:47;;;;;;;35.00;20.60;;;;;;;4.47;100.00;98245.16;5004299;28;20195;-87
2021/12/04 07:09:13;;;;;;;26.57;16.13;;;;;;;5.68;100.00;98421.50;4998838;28;20407;-86
2021/12/04 07:11:38;;;;;;;21.67;13.50;;;;;;;3.47;100.00;98072.47;5001402;28;20178;-86
2021/12/04 07:14:03;;;;;;;20.03;11.93;;;;;;;7.10;100.00;98677.00;4981538;28;20558;-86
2021/12/04 07:16:29;;;;;;;23.03;11.67;;;;;;;3.16;100.00;98000.06;5000941;28;20780;-86
2021/12/04 07:18:55;;;;;;;20.77;10.63;;;;;;;4.25;100.00;98225.72;5002370;28;20167;-85
2021/12/04 07:21:20;;;;;;;15.97;8.90;;;;;;;4.35;100.00;98224.50;5000957;28;20176;-87
2021/12/04 07:23:46;;;;;;;18.43;10.87;;;;;;;7.14;100.00;98681.38;5001559;28;20201;-85
2021/12/04 07:26:12;;;;;;;16.13;9.37;;;;;;;5.48;100.00;98418.06;5002660;28;20207;-86
2021/12/04 07:28:38;;;;;;;17.83;10.07;;;;;;;4.07;100.00;98192.22;4997358;28;20169;-86
2021/12/04 07:31:04;;;;;;;16.27;8.23;;;;;;;3.32;100.00;98047.56;4996429;28;20675;-87
2021/12/04 07:33:29;;;;;;;16.70;8.93;;;;;;;4.87;100.00;98301.41;4977905;28;20175;-86
2021/12/04 07:35:57;;;;;;;20.20;11.47;;;;;;;7.20;100.00;98695.91;4994425;28;20544;-86
2021/12/04 07:38:23;;;;;;;17.93;9.07;;;;;;;3.98;100.00;98167.59;4994383;28;20199;-85
2021/12/04 07:40:48;;;;;;;16.63;9.10;;;;;;;6.95;100.00;98652.00;4999013;28;20965;-88
2021/12/04 07:43:14;;;;;;;20.13;9.90;;;;;;;5.61;100.00;98440.44;4995711;28;20168;-87
2021/12/04 07:45:40;;;;;;;26.90;12.63;;;;;;;5.40;100.00;98408.44;4994556;28;20664;-87
2021/12/04 07:48:06;;;;;;;31.87;15.00;;;;;;;6.71;100.00;98603.09;4996200;28;20606;-85
2021/12/04 07:50:32;;;;;;;31.30;15.83;;;;;;;4.56;100.00;98251.44;4995839;28;20514;-85
2021/12/04 07:52:58;;;;;;;26.57;13.47;;;;;;;5.94;100.00;98457.09;4997860;28;20160;-86
2021/12/04 07:55:25;;;;;;;16.47;8.87;;;;;;;7.33;100.00;98691.50;4997263;28;20411;-87
2021/12/04 07:57:50;;;;;;;27.47;14.63;;;;;;;5.18;100.00;98334.69;4978305;28;20175;-86
2021/12/04 08:00:18;;;;;;;31.90;15.93;;;;;;;5.90;100.00;98489.56;4996169;28;20402;-86
2021/12/04 08:02:48;;;;;;;45.83;20.80;;;;;;;5.18;100.00;98334.69;4992456;28;20559;-85
2021/12/04 08:05:14;;;;;;;68.10;34.93;;;;;;;5.22;100.00;98358.25;4991447;28;20912;-87
2021/12/04 08:07:39;;;;;;;66.27;28.23;;;;;;;4.86;100.00;98257.09;4990001;28;20211;-85
2021/12/04 08:10:08;;;;;;;130.03;56.83;;;;;;;5.43;100.00;98338.31;4985213;28;20500;-86
2021/12/04 08:12:33;;;;;;;68.57;33.50;;;;;;;7.68;100.00;98743.41;4997415;28;20240;-86
2021/12/04 08:14:59;;;;;;;33.27;17.47;;;;;;;4.74;100.00;98257.34;4979102;28;20934;-86
2021/12/04 08:17:25;;;;;;;36.77;18.47;;;;;;;7.78;100.00;98732.94;5000280;28;20175;-87
2021/12/04 08:19:50;;;;;;;22.70;11.87;;;;;;;7.43;100.00;98667.56;5002443;28;20175;-85
2021/12/04 08:22:16;;;;;;;20.53;12.37;;;;;;;5.52;100.00;98361.34;4997308;28;20263;-85
2021/12/04 08:24:44;;;;;;;22.50;11.40;;;;;;;7.85;100.00;98750.06;4998308;28;20175;-87
2021/12/04 08:27:10;;;;;;;21.83;11.30;;;;;;;5.25;100.00;98294.03;4980391;28;20207;-86
2021/12/04 08:29:35;;;;;;;39.43;18.07;;;;;;;6.18;100.00;98439.78;4998967;28;20260;-87
2021/12/04 08:32:01;;;;;;;27.00;13.47;;;;;;;6.32;100.00;98476.44;4995636;28;20175;-87
2021/12/04 08:34:46;;;;;;;19.47;10.90;;;;;;;8.27;100.00;98743.47;5000080;28;20273;-88
2021/12/04 08:37:12;;;;;;;25.20;11.77;;;;;;;7.50;100.00;98589.81;4958580;29;20229;-86
2021/12/04 08:39:37;;;;;;;20.27;12.77;;;;;;;7.30;100.00;98521.81;4959631;29;20219;-86
2021/12/04 08:42:03;;;;;;;32.00;16.70;;;;;;;6.47;100.00;98381.63;4962400;29;20192;-87
2021/12/04 08:44:29;;;;;;;37.17;17.93;;;;;;;6.73;100.00;98409.53;4968377;29;20176;-88
2021/12/04 08:46:55;;;;;;;27.10;12.57;;;;;;;6.60;100.00;98412.28;4941390;29;20272;-89
2021/12/04 08:49:20;;;;;;;34.77;16.60;;;;;;;8.14;100.00;98656.38;4957845;29;20173;-86
2021/12/04 08:51:46;;;;;;;26.17;15.43;;;;;;;5.94;100.00;98275.41;4964957;29;20191;-89
2021/12/04 08:54:12;;;;;;;27.97;16.93;;;;;;;7.52;100.00;98540.41;4975337;28;20177;-88
2021/12/04 08:56:38;;;;;;;19.40;11.73;;;;;;;5.65;100.00;98172.84;4964372;29;20197;-89
2021/12/04 08:59:04;;;;;;;19.80;11.03;;;;;;;8.48;100.00;98666.19;4945980;29;20195;-87
2021/12/04 09:01:34;;;;;;;17.13;10.40;;;;;;;9.04;100.00;98728.13;4947752;29;20200;-88
2021/12/04 09:04:05;;;;;;;15.43;9.80;;;;;;;8.49;100.00;98644.34;4962187;29;20239;-86
2021/12/04 09:06:32;;;;;;;15.27;9.10;;;;;;;7.66;100.00;98495.66;4945010;29;20200;-87
2021/12/04 09:08:59;;;;;;;30.27;20.37;;;;;;;7.17;100.00;98409.69;4993085;28;20194;-87
2021/12/04 09:11:31;;;;;;;28.40;16.47;;;;;;;5.65;100.00;98155.28;4998808;28;20179;-88
2021/12/04 09:13:57;;;;;;;22.10;12.43;;;;;;;7.27;100.00;98442.00;5000273;28;20199;-85
2021/12/04 09:16:24;;;;;;;19.93;11.37;;;;;;;8.08;100.00;98564.50;5001919;28;20172;-87
2021/12/04 09:18:50;;;;;;;20.50;12.77;;;;;;;7.44;100.00;98446.06;5012628;28;20194;-89
2021/12/04 09:21:16;;;;;;;21.37;12.83;;;;;;;9.20;100.00;98720.31;5011439;28;20171;-87
2021/12/04 09:23:48;;;;;;;25.80;11.70;;;;;;;9.34;100.00;98739.34;4984759;28;20167;-87
2021/12/04 09:26:28;;;;;;;24.23;12.20;;;;;;;8.76;100.00;98615.16;4998453;28;20211;-88
2021/12/04 09:29:07;;;;;;;13.33;8.20;;;;;;;7.75;100.00;98439.75;4984626;28;20616;-88
2021/12/04 09:31:59;;;;;;;32.23;19.37;;;;;;;9.40;100.00;98702.56;4995100;28;20172;-87
2021/12/04 09:34:50;;;;;;;37.70;23.17;;;;;;;8.44;100.00;98495.34;4982500;28;20171;-86
2021/12/04 10:01:51;;;;;;;109.50;57.37;;;;;;;9.18;96.96;98368.41;4999358;28;20190;-88
2021/12/04 10:04:49;;;;;;;98.17;52.70;;;;;;;10.30;93.73;98415.72;5001890;28;20171;-86
2021/12/04 10:34:30;;;;;;;20.00;11.97;;;;;;;11.38;83.07;98395.81;5001966;28;20202;-87
2021/12/04 10:37:11;;;;;;;18.50;11.70;;;;;;;12.25;84.09;98583.09;5003032;28;20292;-88
2021/12/04 10:39:37;;;;;;;24.50;13.87;;;;;;;12.50;83.89;98584.50;5004736;28;20225;-87
2021/12/04 10:42:08;;;;;;;86.90;41.90;;;;;;;11.89;82.74;98498.50;5005006;28;20210;-89
2021/12/04 10:44:40;;;;;;;78.60;34.37;;;;;;;10.87;83.54;98312.69;5019022;28;20171;-90
2021/12/04 10:47:11;;;;;;;38.37;21.30;;;;;;;10.66;83.79;98271.63;5017121;28;20676;-85
2021/12/04 10:49:55;;;;;;;17.67;10.37;;;;;;;11.53;82.18;98348.03;5015159;28;20187;-86
2021/12/04 10:52:45;;;;;;;21.57;13.00;;;;;;;12.34;81.46;98445.41;5016128;28;20213;-88
2021/12/04 10:55:16;;;;;;;18.70;11.70;;;;;;;13.70;80.70;98666.75;4990883;28;20157;-88
2021/12/04 11:00:36;;;;;;;19.60;12.77;;;;;;;10.65;78.92;98158.59;5002619;28;20172;-89
2021/12/04 11:38:47;;;;;;;11.70;6.83;;;;;;;13.63;74.40;98521.63;4940562;29;20328;-90
2021/12/04 11:46:21;;;;;;;213.33;81.67;;;;;;;14.66;73.44;98661.69;5013317;28;20207;-87
2021/12/04 11:48:47;;;;;;;10.90;6.97;;;;;;;14.12;74.25;98653.94;5000190;28;20183;-87
2021/12/04 11:51:21;;;;;;;13.70;7.97;;;;;;;11.92;75.18;98299.91;4999432;28;20250;-87
2021/12/04 11:53:48;;;;;;;11.53;7.70;;;;;;;11.97;74.42;98291.56;4997418;28;20199;-88
2021/12/04 11:56:18;;;;;;;35.97;14.67;;;;;;;12.94;75.21;98468.63;4993922;28;20652;-88
2021/12/04 11:58:46;;;;;;;10.87;7.00;;;;;;;10.92;74.87;98106.03;4995730;28;20187;-87
2021/12/04 12:01:30;;;;;;;14.27;9.33;;;;;;;13.62;74.83;98575.88;4998385;28;20230;-89
2021/12/04 12:04:00;;;;;;;12.83;8.27;;;;;;;11.45;76.26;98253.25;4982028;28;20164;-88
2021/12/04 12:06:32;;;;;;;14.50;8.63;;;;;;;12.76;76.80;98475.91;5002103;28;20205;-88
2021/12/04 12:09:09;;;;;;;13.30;6.77;;;;;;;13.93;75.91;98662.06;4986546;28;20171;-88
2021/12/04 12:11:35;;;;;;;26.70;16.67;;;;;;;11.22;75.54;98185.19;5003312;28;20225;-89
2021/12/04 12:14:06;;;;;;;21.03;13.53;;;;;;;10.62;75.22;98115.50;5018960;28;20181;-88
2021/12/04 12:16:39;;;;;;;19.03;12.80;;;;;;;11.14;75.61;98206.13;5002976;28;20246;-88
2021/12/04 12:19:12;;;;;;;27.10;15.47;;;;;;;10.94;75.16;98152.50;5018367;28;20179;-86
2021/12/04 12:22:00;;;;;;;40.57;25.40;;;;;;;14.14;75.71;98655.72;4991585;28;20171;-89
2021/12/04 12:36:04;;;;;;;28.77;13.33;;;;;;;14.61;77.76;98648.84;4948366;29;20219;-89
2021/12/04 12:38:44;;;;;;;15.63;9.47;;;;;;;14.28;79.90;98658.50;4948812;29;20173;-88
2021/12/04 12:41:20;;;;;;;12.83;8.33;;;;;;;13.86;81.92;98656.03;4950736;29;20273;-89
2021/12/04 12:44:07;;;;;;;17.67;10.20;;;;;;;13.70;82.58;98653.16;4950776;29;20188;-90
2021/12/04 12:46:52;;;;;;;17.53;10.97;;;;;;;10.52;84.29;98141.41;4950327;29;20185;-88
2021/12/04 12:49:26;;;;;;;14.97;9.97;;;;;;;13.45;85.28;98656.91;4933719;29;20197;-88
2021/12/04 12:52:02;;;;;;;18.23;10.57;;;;;;;9.92;84.17;98069.94;5027201;23;20212;-90
2021/12/04 12:54:57;;;;;;;14.10;8.70;;;;;;;12.29;85.13;98475.75;4985621;28;20188;-88
2021/12/04 12:57:34;;;;;;;18.93;10.73;;;;;;;11.95;nan;98455.53;4966315;28;20203;-89
2021/12/04 13:11:43;;;;;;;31.53;18.50;;;;;;;13.16;85.98;98594.47;4963347;29;20220;-87
2021/12/04 13:14:09;;;;;;;22.40;15.07;;;;;;;13.61;86.49;98686.91;4965085;29;20261;-86
2021/12/04 13:16:35;;;;;;;20.60;12.83;;;;;;;11.02;86.70;98249.75;4969488;29;20220;-87
2021/12/04 13:19:06;;;;;;;22.07;13.43;;;;;;;13.12;88.32;98689.25;4966910;28;20164;-87
2021/12/04 13:21:38;;;;;;;16.87;9.90;;;;;;;10.95;88.52;98361.84;4979130;28;20267;-87
2021/12/04 13:24:05;;;;;;;19.27;12.43;;;;;;;12.58;89.58;98674.41;4968203;28;20550;-87
2021/12/04 13:26:34;;;;;;;23.37;14.43;;;;;;;9.53;90.34;98180.09;4966992;29;20676;-87
2021/12/04 13:29:02;;;;;;;40.10;23.43;;;;;;;9.98;90.97;98283.31;4966935;29;20552;-86
2021/12/04 13:31:28;;;;;;;19.17;11.33;;;;;;;9.62;91.37;98231.72;4966562;29;20231;-86
2021/12/04 13:33:55;;;;;;;19.00;11.23;;;;;;;10.61;92.98;98445.28;4967347;29;20173;-88
2021/12/04 13:36:24;;;;;;;24.20;14.20;;;;;;;9.95;93.13;98330.38;4966915;29;20165;-86
2021/12/04 13:38:59;;;;;;;51.60;29.07;;;;;;;9.78;94.52;98334.13;4967932;28;20165;-87
2021/12/04 13:41:26;;;;;;;47.53;27.93;;;;;;;8.37;94.31;98109.31;4965181;29;20164;-88
2021/12/04 13:43:54;;;;;;;60.47;32.90;;;;;;;8.72;94.36;98164.22;4982987;28;20177;-86
2021/12/04 13:46:20;;;;;;;25.87;14.43;;;;;;;10.47;94.74;98462.59;4949321;29;20673;-89
2021/12/04 13:48:46;;;;;;;46.37;24.47;;;;;;;8.72;94.70;98181.88;4947248;29;20284;-88
2021/12/04 13:51:31;;;;;;;49.70;27.37;;;;;;;8.89;95.10;98232.06;4964317;29;20193;-88
2021/12/04 13:53:57;;;;;;;34.20;18.70;;;;;;;8.63;95.32;98174.88;4908643;29;20225;-86
2021/12/04 13:56:23;;;;;;;96.23;44.07;;;;;;;10.41;95.24;98507.97;4891490;29;20198;-88
2021/12/04 13:59:01;;;;;;;43.37;25.20;;;;;;;10.53;96.52;98555.56;4910540;29;20207;-87
2021/12/04 14:01:29;;;;;;;44.23;25.33;;;;;;;11.13;96.38;98647.66;4909811;29;20197;-86
2021/12/04 14:03:57;;;;;;;33.60;18.53;;;;;;;11.02;96.95;98646.47;4899517;29;20178;-86
2021/12/04 14:06:23;;;;;;;35.30;20.67;;;;;;;7.47;97.43;98083.63;4901039;29;20245;-88
2021/12/04 14:09:05;;;;;;;46.97;23.20;;;;;;;11.24;97.95;98720.63;4901050;29;20190;-89
2021/12/04 14:11:37;;;;;;;165.13;58.97;;;;;;;9.58;97.81;98432.03;4909992;29;20222;-86
2021/12/04 14:14:14;;;;;;;57.40;27.50;;;;;;;7.73;97.91;98117.25;4893870;29;20183;-85
2021/12/04 14:16:41;;;;;;;45.13;25.57;;;;;;;9.99;99.06;98522.69;4912758;29;20194;-88
2021/12/04 14:19:29;;;;;;;32.40;18.80;;;;;;;11.01;99.75;98720.75;4927136;29;20193;-87
2021/12/04 14:22:01;;;;;;;58.73;32.27;;;;;;;10.02;100.00;98555.66;4925319;29;20189;-89
2021/12/04 14:24:30;;;;;;;66.47;36.43;;;;;;;8.88;100.00;98369.13;4924902;29;20190;-86
2021/12/04 14:26:58;;;;;;;40.67;21.13;;;;;;;9.03;100.00;98372.97;4911068;29;20206;-89
2021/12/04 14:29:27;;;;;;;46.37;25.60;;;;;;;8.22;99.15;98220.53;4924315;29;20254;-86
2021/12/04 14:31:53;;;;;;;40.03;22.37;;;;;;;8.31;98.71;98230.97;4947750;29;20268;-88
2021/12/04 14:34:24;;;;;;;42.20;23.00;;;;;;;7.86;98.40;98148.75;4968481;28;20264;-87